Irvine, PA (16369)

4:11 AM EST on December 28, 2014 (GMT -0500)
Brokenstraw Airport | Change Station
CLOSE
Current Station
Personal Weather Station
Location: Pittsfield, PA
Elevation: 1235 ft
Nearby Weather Stations

Elev 1235 ft 41.83 °N, 79.36 °W | Updated 23 seconds ago

Rain
Rain
38.8 °F
Feels Like 36 °F
N
4.0
Wind Variable Wind from WSW
Gusts 13.0 mph

Today
High -- | Low -- °F
--% Chance of Precip.
Yesterday
High -- | Low -- °F
Precip. -- in
7:43 AM 4:53 PM
Waxing Crescent, 45% visible
Pressure 29.90 in
Visibility 10.0 miles
Clouds Scattered Clouds 600 ft
Overcast 2800 ft
Windchill 36 °F
Dew Point 36 °F
Humidity 91%
Rainfall 0.42 in
Snow Depth Not available.
UV 0 out of 12
Pollen .10 out of 12
Air Quality Not available.
Flu Activity Not available.
METAR KJHW 280855Z 27007KT 10SM SCT006 OVC028 01/M01 A2990 RMK AO1 P0007 60020 54000

More Conditions Fewer Conditions

Pressure 29.90 in
Visibility 10.0 miles
Clouds Scattered Clouds 600 ft
Overcast 2800 ft
Windchill 36 °F
Dew Point 36 °F
Humidity 91%
Rainfall 0.42 in
Snow Depth Not available.
UV 0 out of 12
Pollen .10 out of 12
Air Quality Not available.
Flu Activity Not available.
METAR KJHW 280855Z 27007KT 10SM SCT006 OVC028 01/M01 A2990 RMK AO1 P0007 60020 54000

More Conditions Fewer Conditions

10-Day Weather Forecast

Almanac

Astronomy

Dec. 28, 2014 Rise Set
Actual Time
Civil Twilight
Nautical Twilight
Astronomical Twilight
Moon
Length of Visible Light
Length of Day
Tomorrow will be .
, % of the Moon is Illuminated

Today's Extremes

State Highs State Lows

Community

WunderPhotos

Upload Photos

1,781,210 photos uploaded!

WunderBlogs® & News

Nearby

Air Quality

  Air Quality AQ Index Pollutant
Not available.

Snow Depth

Station Depth Elevation

Earthquake Activity

City Distance Mag. Time & Date
Minimum magnitude displayed is 2.5.

Coastal Water Temperatures

Place Temperature

Nearby Weather Stations